sensor_id;sensor_type;location;lat;lon;timestamp;temperature;humidity
40932;DHT22;36257;46.052;12.540;2023-07-02T00:02:14;18.60;99.90
40932;DHT22;36257;46.052;12.540;2023-07-02T00:04:40;18.50;99.90
40932;DHT22;36257;46.052;12.540;2023-07-02T00:07:06;18.60;99.90
40932;DHT22;36257;46.052;12.540;2023-07-02T00:09:32;18.60;99.90
40932;DHT22;36257;46.052;12.540;2023-07-02T00:11:57;18.60;99.90
40932;DHT22;36257;46.052;12.540;2023-07-02T00:14:23;18.50;99.90
40932;DHT22;36257;46.052;12.540;2023-07-02T00:16:48;18.40;99.90
40932;DHT22;36257;46.052;12.540;2023-07-02T00:19:14;18.40;99.90
40932;DHT22;36257;46.052;12.540;2023-07-02T00:21:39;18.30;99.90
40932;DHT22;36257;46.052;12.540;2023-07-02T00:24:06;18.40;99.90
40932;DHT22;36257;46.052;12.540;2023-07-02T00:26:32;18.40;99.90
40932;DHT22;36257;46.052;12.540;2023-07-02T00:28:57;18.30;99.90
40932;DHT22;36257;46.052;12.540;2023-07-02T00:31:23;18.30;99.90
40932;DHT22;36257;46.052;12.540;2023-07-02T00:33:49;18.30;99.90
40932;DHT22;36257;46.052;12.540;2023-07-02T00:36:14;18.40;99.90
40932;DHT22;36257;46.052;12.540;2023-07-02T00:38:47;18.30;99.90
40932;DHT22;36257;46.052;12.540;2023-07-02T00:41:13;18.30;99.90
40932;DHT22;36257;46.052;12.540;2023-07-02T00:43:39;18.30;99.90
40932;DHT22;36257;46.052;12.540;2023-07-02T00:46:08;18.30;99.90
40932;DHT22;36257;46.052;12.540;2023-07-02T00:48:34;18.20;99.90
40932;DHT22;36257;46.052;12.540;2023-07-02T00:51:00;18.30;99.90
40932;DHT22;36257;46.052;12.540;2023-07-02T00:53:25;18.30;99.90
40932;DHT22;36257;46.052;12.540;2023-07-02T00:55:51;18.30;99.90
40932;DHT22;36257;46.052;12.540;2023-07-02T00:58:16;18.40;99.90
40932;DHT22;36257;46.052;12.540;2023-07-02T01:00:42;18.30;99.90
40932;DHT22;36257;46.052;12.540;2023-07-02T01:03:08;18.30;99.90
40932;DHT22;36257;46.052;12.540;2023-07-02T01:05:34;18.30;99.90
40932;DHT22;36257;46.052;12.540;2023-07-02T01:08:06;18.30;99.90
40932;DHT22;36257;46.052;12.540;2023-07-02T01:10:31;18.30;99.90
40932;DHT22;36257;46.052;12.540;2023-07-02T01:13:08;18.30;99.90
40932;DHT22;36257;46.052;12.540;2023-07-02T01:15:34;18.20;99.90
40932;DHT22;36257;46.052;12.540;2023-07-02T01:18:01;18.20;99.90
40932;DHT22;36257;46.052;12.540;2023-07-02T01:20:28;18.30;99.90
40932;DHT22;36257;46.052;12.540;2023-07-02T01:22:56;18.20;99.90
40932;DHT22;36257;46.052;12.540;2023-07-02T01:25:22;18.20;99.90
40932;DHT22;36257;46.052;12.540;2023-07-02T01:27:50;18.30;99.90
40932;DHT22;36257;46.052;12.540;2023-07-02T01:30:15;18.20;99.90
40932;DHT22;36257;46.052;12.540;2023-07-02T01:32:41;18.30;99.90
40932;DHT22;36257;46.052;12.540;2023-07-02T01:35:07;18.30;99.90
40932;DHT22;36257;46.052;12.540;2023-07-02T01:37:33;18.20;99.90
40932;DHT22;36257;46.052;12.540;2023-07-02T01:40:02;18.20;99.90
40932;DHT22;36257;46.052;12.540;2023-07-02T01:42:28;18.30;99.90
40932;DHT22;36257;46.052;12.540;2023-07-02T01:44:54;18.20;99.90
40932;DHT22;36257;46.052;12.540;2023-07-02T01:47:19;18.20;99.90
40932;DHT22;36257;46.052;12.540;2023-07-02T01:49:45;18.20;99.90
40932;DHT22;36257;46.052;12.540;2023-07-02T01:52:10;18.20;99.90
40932;DHT22;36257;46.052;12.540;2023-07-02T01:54:36;18.10;99.90
40932;DHT22;36257;46.052;12.540;2023-07-02T01:57:02;18.10;99.90
40932;DHT22;36257;46.052;12.540;2023-07-02T01:59:27;18.10;99.90
40932;DHT22;36257;46.052;12.540;2023-07-02T02:01:53;18.10;99.90
40932;DHT22;36257;46.052;12.540;2023-07-02T02:04:18;18.10;99.90
40932;DHT22;36257;46.052;12.540;2023-07-02T02:06:44;18.10;99.90
40932;DHT22;36257;46.052;12.540;2023-07-02T02:09:10;18.10;99.90
40932;DHT22;36257;46.052;12.540;2023-07-02T02:11:38;18.10;99.90
40932;DHT22;36257;46.052;12.540;2023-07-02T02:14:03;18.10;99.90
40932;DHT22;36257;46.052;12.540;2023-07-02T02:16:29;18.00;99.90
40932;DHT22;36257;46.052;12.540;2023-07-02T02:18:54;17.90;99.90
40932;DHT22;36257;46.052;12.540;2023-07-02T02:21:20;17.90;99.90
40932;DHT22;36257;46.052;12.540;2023-07-02T02:23:46;17.90;99.90
40932;DHT22;36257;46.052;12.540;2023-07-02T02:26:11;17.90;99.90
40932;DHT22;36257;46.052;12.540;2023-07-02T02:28:37;17.90;99.90
40932;DHT22;36257;46.052;12.540;2023-07-02T02:31:03;17.90;99.90
40932;DHT22;36257;46.052;12.540;2023-07-02T02:33:28;17.90;99.90
40932;DHT22;36257;46.052;12.540;2023-07-02T02:35:54;17.90;99.90
40932;DHT22;36257;46.052;12.540;2023-07-02T02:38:19;17.80;99.90
40932;DHT22;36257;46.052;12.540;2023-07-02T02:40:45;17.90;99.90
40932;DHT22;36257;46.052;12.540;2023-07-02T02:43:10;17.90;99.90
40932;DHT22;36257;46.052;12.540;2023-07-02T02:45:36;17.90;99.90
40932;DHT22;36257;46.052;12.540;2023-07-02T02:48:01;17.90;99.90
40932;DHT22;36257;46.052;12.540;2023-07-02T02:50:27;17.90;99.90
40932;DHT22;36257;46.052;12.540;2023-07-02T02:52:52;17.90;99.90
40932;DHT22;36257;46.052;12.540;2023-07-02T02:55:18;17.90;99.90
40932;DHT22;36257;46.052;12.540;2023-07-02T02:57:43;17.90;99.90
40932;DHT22;36257;46.052;12.540;2023-07-02T03:00:09;17.90;99.90
40932;DHT22;36257;46.052;12.540;2023-07-02T03:02:35;17.90;99.90
40932;DHT22;36257;46.052;12.540;2023-07-02T03:05:01;17.90;99.90
40932;DHT22;36257;46.052;12.540;2023-07-02T03:07:27;17.90;99.90
40932;DHT22;36257;46.052;12.540;2023-07-02T03:09:53;17.80;99.90
40932;DHT22;36257;46.052;12.540;2023-07-02T03:12:18;17.80;99.90
40932;DHT22;36257;46.052;12.540;2023-07-02T03:14:44;17.80;99.90
40932;DHT22;36257;46.052;12.540;2023-07-02T03:17:10;17.80;99.90
40932;DHT22;36257;46.052;12.540;2023-07-02T03:19:35;17.80;99.90
40932;DHT22;36257;46.052;12.540;2023-07-02T03:22:01;17.80;99.90
40932;DHT22;36257;46.052;12.540;2023-07-02T03:24:26;17.80;99.90
40932;DHT22;36257;46.052;12.540;2023-07-02T03:26:52;17.80;99.90
40932;DHT22;36257;46.052;12.540;2023-07-02T03:29:17;17.80;99.90
40932;DHT22;36257;46.052;12.540;2023-07-02T03:31:45;17.80;99.90
40932;DHT22;36257;46.052;12.540;2023-07-02T03:34:12;17.80;99.90
40932;DHT22;36257;46.052;12.540;2023-07-02T03:36:37;17.80;99.90
40932;DHT22;36257;46.052;12.540;2023-07-02T03:39:03;17.80;99.90
40932;DHT22;36257;46.052;12.540;2023-07-02T03:41:29;17.80;99.90
40932;DHT22;36257;46.052;12.540;2023-07-02T03:43:54;17.80;99.90
40932;DHT22;36257;46.052;12.540;2023-07-02T03:46:20;17.80;99.90
40932;DHT22;36257;46.052;12.540;2023-07-02T03:48:45;17.80;99.90
40932;DHT22;36257;46.052;12.540;2023-07-02T03:51:11;17.80;99.90
40932;DHT22;36257;46.052;12.540;2023-07-02T03:53:42;17.80;99.90
40932;DHT22;36257;46.052;12.540;2023-07-02T03:56:08;17.80;99.90
40932;DHT22;36257;46.052;12.540;2023-07-02T03:58:33;17.70;99.90
40932;DHT22;36257;46.052;12.540;2023-07-02T04:00:59;17.70;99.90
40932;DHT22;36257;46.052;12.540;2023-07-02T04:03:25;17.70;99.90
40932;DHT22;36257;46.052;12.540;2023-07-02T04:05:50;17.70;99.90
40932;DHT22;36257;46.052;12.540;2023-07-02T04:08:16;17.80;99.90
40932;DHT22;36257;46.052;12.540;2023-07-02T04:10:41;17.80;99.90
40932;DHT22;36257;46.052;12.540;2023-07-02T04:13:07;17.80;99.90
40932;DHT22;36257;46.052;12.540;2023-07-02T04:15:32;17.80;99.90
40932;DHT22;36257;46.052;12.540;2023-07-02T04:17:58;17.90;99.90
40932;DHT22;36257;46.052;12.540;2023-07-02T04:20:24;17.90;99.90
40932;DHT22;36257;46.052;12.540;2023-07-02T04:22:50;18.00;99.90
40932;DHT22;36257;46.052;12.540;2023-07-02T04:25:16;18.10;99.90
40932;DHT22;36257;46.052;12.540;2023-07-02T04:27:42;18.10;99.90
40932;DHT22;36257;46.052;12.540;2023-07-02T04:30:08;18.20;99.90
40932;DHT22;36257;46.052;12.540;2023-07-02T04:32:35;18.30;99.90
40932;DHT22;36257;46.052;12.540;2023-07-02T04:35:01;18.30;99.90
40932;DHT22;36257;46.052;12.540;2023-07-02T04:37:26;18.40;99.90
40932;DHT22;36257;46.052;12.540;2023-07-02T04:39:54;18.50;99.90
40932;DHT22;36257;46.052;12.540;2023-07-02T04:42:19;18.50;99.90
40932;DHT22;36257;46.052;12.540;2023-07-02T04:44:45;18.50;99.90
40932;DHT22;36257;46.052;12.540;2023-07-02T04:47:10;18.50;99.90
40932;DHT22;36257;46.052;12.540;2023-07-02T04:49:36;18.60;99.90
40932;DHT22;36257;46.052;12.540;2023-07-02T04:52:01;18.70;99.90
40932;DHT22;36257;46.052;12.540;2023-07-02T04:54:27;18.80;99.90
40932;DHT22;36257;46.052;12.540;2023-07-02T04:56:52;18.80;99.90
40932;DHT22;36257;46.052;12.540;2023-07-02T04:59:20;19.00;99.90
40932;DHT22;36257;46.052;12.540;2023-07-02T05:01:46;19.00;99.90
40932;DHT22;36257;46.052;12.540;2023-07-02T05:04:11;19.10;99.90
40932;DHT22;36257;46.052;12.540;2023-07-02T05:06:37;19.10;99.90
40932;DHT22;36257;46.052;12.540;2023-07-02T05:09:03;19.10;99.90
40932;DHT22;36257;46.052;12.540;2023-07-02T05:11:28;19.20;99.90
40932;DHT22;36257;46.052;12.540;2023-07-02T05:13:54;19.20;99.90
40932;DHT22;36257;46.052;12.540;2023-07-02T05:16:19;19.30;99.90
40932;DHT22;36257;46.052;12.540;2023-07-02T05:18:45;19.30;99.90
40932;DHT22;36257;46.052;12.540;2023-07-02T05:21:11;19.40;99.90
40932;DHT22;36257;46.052;12.540;2023-07-02T05:23:36;19.40;99.90
40932;DHT22;36257;46.052;12.540;2023-07-02T05:26:02;19.50;99.90
40932;DHT22;36257;46.052;12.540;2023-07-02T05:28:28;19.60;99.90
40932;DHT22;36257;46.052;12.540;2023-07-02T05:30:53;19.70;99.90
40932;DHT22;36257;46.052;12.540;2023-07-02T05:33:19;19.80;99.90
40932;DHT22;36257;46.052;12.540;2023-07-02T05:35:45;19.90;99.90
40932;DHT22;36257;46.052;12.540;2023-07-02T05:38:11;20.00;99.90
40932;DHT22;36257;46.052;12.540;2023-07-02T05:40:36;20.20;99.90
40932;DHT22;36257;46.052;12.540;2023-07-02T05:43:02;20.40;99.90
40932;DHT22;36257;46.052;12.540;2023-07-02T05:45:28;20.60;99.90
40932;DHT22;36257;46.052;12.540;2023-07-02T05:47:54;20.80;99.90
40932;DHT22;36257;46.052;12.540;2023-07-02T05:50:20;20.90;99.90
40932;DHT22;36257;46.052;12.540;2023-07-02T05:52:45;21.20;99.90
40932;DHT22;36257;46.052;12.540;2023-07-02T05:55:11;21.40;99.90
40932;DHT22;36257;46.052;12.540;2023-07-02T05:57:39;21.60;99.90
40932;DHT22;36257;46.052;12.540;2023-07-02T06:00:05;21.90;99.90
40932;DHT22;36257;46.052;12.540;2023-07-02T06:02:31;22.20;99.90
40932;DHT22;36257;46.052;12.540;2023-07-02T06:04:56;22.40;99.90
40932;DHT22;36257;46.052;12.540;2023-07-02T06:07:23;22.60;99.90
40932;DHT22;36257;46.052;12.540;2023-07-02T06:09:49;22.80;99.90
40932;DHT22;36257;46.052;12.540;2023-07-02T06:12:15;22.90;99.90
40932;DHT22;36257;46.052;12.540;2023-07-02T06:14:40;23.00;99.90
40932;DHT22;36257;46.052;12.540;2023-07-02T06:17:06;23.10;99.60
40932;DHT22;36257;46.052;12.540;2023-07-02T06:19:32;23.20;98.80
40932;DHT22;36257;46.052;12.540;2023-07-02T06:21:58;23.40;98.80
40932;DHT22;36257;46.052;12.540;2023-07-02T06:24:24;23.50;97.50
40932;DHT22;36257;46.052;12.540;2023-07-02T06:26:49;23.70;98.20
40932;DHT22;36257;46.052;12.540;2023-07-02T06:29:15;23.80;96.30
40932;DHT22;36257;46.052;12.540;2023-07-02T06:31:40;24.00;96.10
40932;DHT22;36257;46.052;12.540;2023-07-02T06:34:06;24.10;93.80
40932;DHT22;36257;46.052;12.540;2023-07-02T06:36:34;24.20;92.10
40932;DHT22;36257;46.052;12.540;2023-07-02T06:38:59;24.20;93.50
40932;DHT22;36257;46.052;12.540;2023-07-02T06:41:25;24.30;94.80
40932;DHT22;36257;46.052;12.540;2023-07-02T06:43:51;24.40;94.50
40932;DHT22;36257;46.052;12.540;2023-07-02T06:46:16;24.60;92.20
40932;DHT22;36257;46.052;12.540;2023-07-02T06:48:42;24.80;93.10
40932;DHT22;36257;46.052;12.540;2023-07-02T06:51:07;25.00;90.30
40932;DHT22;36257;46.052;12.540;2023-07-02T06:53:34;25.20;92.90
40932;DHT22;36257;46.052;12.540;2023-07-02T06:55:59;25.40;90.00
40932;DHT22;36257;46.052;12.540;2023-07-02T06:58:25;25.50;89.60
40932;DHT22;36257;46.052;12.540;2023-07-02T07:00:50;25.60;89.70
40932;DHT22;36257;46.052;12.540;2023-07-02T07:03:16;25.80;90.60
40932;DHT22;36257;46.052;12.540;2023-07-02T07:05:41;26.10;89.60
40932;DHT22;36257;46.052;12.540;2023-07-02T07:08:07;26.30;91.30
40932;DHT22;36257;46.052;12.540;2023-07-02T07:10:33;26.50;91.00
40932;DHT22;36257;46.052;12.540;2023-07-02T07:13:00;26.60;89.60
40932;DHT22;36257;46.052;12.540;2023-07-02T07:15:26;26.80;89.00
40932;DHT22;36257;46.052;12.540;2023-07-02T07:17:51;27.00;88.40
40932;DHT22;36257;46.052;12.540;2023-07-02T07:20:17;27.20;85.80
40932;DHT22;36257;46.052;12.540;2023-07-02T07:22:42;27.20;85.30
40932;DHT22;36257;46.052;12.540;2023-07-02T07:25:08;27.20;86.10
40932;DHT22;36257;46.052;12.540;2023-07-02T07:27:34;27.10;84.80
40932;DHT22;36257;46.052;12.540;2023-07-02T07:29:59;26.90;83.70
40932;DHT22;36257;46.052;12.540;2023-07-02T07:32:25;26.90;83.40
40932;DHT22;36257;46.052;12.540;2023-07-02T07:34:50;26.70;87.90
40932;DHT22;36257;46.052;12.540;2023-07-02T07:37:16;26.60;86.10
40932;DHT22;36257;46.052;12.540;2023-07-02T07:39:41;26.70;88.20
40932;DHT22;36257;46.052;12.540;2023-07-02T07:42:07;26.80;88.00
40932;DHT22;36257;46.052;12.540;2023-07-02T07:44:32;26.90;85.70
40932;DHT22;36257;46.052;12.540;2023-07-02T07:46:58;27.10;86.60
40932;DHT22;36257;46.052;12.540;2023-07-02T07:49:23;27.10;85.70
40932;DHT22;36257;46.052;12.540;2023-07-02T07:51:49;26.80;83.70
40932;DHT22;36257;46.052;12.540;2023-07-02T07:54:14;26.80;82.00
40932;DHT22;36257;46.052;12.540;2023-07-02T07:56:40;26.80;84.00
40932;DHT22;36257;46.052;12.540;2023-07-02T07:59:05;26.90;89.70
40932;DHT22;36257;46.052;12.540;2023-07-02T08:01:31;27.10;86.90
40932;DHT22;36257;46.052;12.540;2023-07-02T08:03:56;27.30;85.50
40932;DHT22;36257;46.052;12.540;2023-07-02T08:06:22;27.40;86.10
40932;DHT22;36257;46.052;12.540;2023-07-02T08:08:47;27.40;84.00
40932;DHT22;36257;46.052;12.540;2023-07-02T08:11:13;27.50;83.70
40932;DHT22;36257;46.052;12.540;2023-07-02T08:13:38;27.40;82.30
40932;DHT22;36257;46.052;12.540;2023-07-02T08:16:04;27.40;83.90
40932;DHT22;36257;46.052;12.540;2023-07-02T08:18:30;27.30;81.60
40932;DHT22;36257;46.052;12.540;2023-07-02T08:20:55;27.40;86.10
40932;DHT22;36257;46.052;12.540;2023-07-02T08:23:21;27.60;85.60
40932;DHT22;36257;46.052;12.540;2023-07-02T08:25:46;27.90;82.10
40932;DHT22;36257;46.052;12.540;2023-07-02T08:28:12;28.10;84.60
40932;DHT22;36257;46.052;12.540;2023-07-02T08:30:37;28.30;85.60
40932;DHT22;36257;46.052;12.540;2023-07-02T08:33:03;28.50;83.20
40932;DHT22;36257;46.052;12.540;2023-07-02T08:35:28;28.60;82.20
40932;DHT22;36257;46.052;12.540;2023-07-02T08:37:54;28.70;80.80
40932;DHT22;36257;46.052;12.540;2023-07-02T08:40:19;28.70;83.80
40932;DHT22;36257;46.052;12.540;2023-07-02T08:42:45;29.00;83.00
40932;DHT22;36257;46.052;12.540;2023-07-02T08:45:13;29.10;81.10
40932;DHT22;36257;46.052;12.540;2023-07-02T08:47:38;29.30;83.50
40932;DHT22;36257;46.052;12.540;2023-07-02T08:50:05;29.40;80.90
40932;DHT22;36257;46.052;12.540;2023-07-02T08:52:31;29.70;82.70
40932;DHT22;36257;46.052;12.540;2023-07-02T08:54:56;29.80;81.70
40932;DHT22;36257;46.052;12.540;2023-07-02T08:57:22;29.80;81.30
40932;DHT22;36257;46.052;12.540;2023-07-02T08:59:47;29.80;80.10
40932;DHT22;36257;46.052;12.540;2023-07-02T09:02:14;29.50;79.40
40932;DHT22;36257;46.052;12.540;2023-07-02T09:04:39;29.40;80.30
40932;DHT22;36257;46.052;12.540;2023-07-02T09:07:06;29.40;79.10
40932;DHT22;36257;46.052;12.540;2023-07-02T09:09:32;29.40;79.70
40932;DHT22;36257;46.052;12.540;2023-07-02T09:11:57;29.60;80.20
40932;DHT22;36257;46.052;12.540;2023-07-02T09:14:27;29.60;81.40
40932;DHT22;36257;46.052;12.540;2023-07-02T09:17:03;29.50;80.50
40932;DHT22;36257;46.052;12.540;2023-07-02T09:19:29;29.30;78.40
40932;DHT22;36257;46.052;12.540;2023-07-02T09:21:56;29.40;80.80
40932;DHT22;36257;46.052;12.540;2023-07-02T09:24:22;29.30;79.20
40932;DHT22;36257;46.052;12.540;2023-07-02T09:26:52;29.00;80.00
40932;DHT22;36257;46.052;12.540;2023-07-02T09:29:22;28.90;80.70
40932;DHT22;36257;46.052;12.540;2023-07-02T09:31:49;28.80;82.70
40932;DHT22;36257;46.052;12.540;2023-07-02T09:34:15;28.90;81.60
40932;DHT22;36257;46.052;12.540;2023-07-02T09:36:40;28.90;80.80
40932;DHT22;36257;46.052;12.540;2023-07-02T09:39:11;28.90;80.80
40932;DHT22;36257;46.052;12.540;2023-07-02T09:41:37;28.90;80.20
40932;DHT22;36257;46.052;12.540;2023-07-02T09:44:03;29.20;82.40
40932;DHT22;36257;46.052;12.540;2023-07-02T09:46:29;29.30;82.60
40932;DHT22;36257;46.052;12.540;2023-07-02T09:48:56;29.20;81.60
40932;DHT22;36257;46.052;12.540;2023-07-02T09:51:22;29.40;82.60
40932;DHT22;36257;46.052;12.540;2023-07-02T09:53:48;29.60;80.00
40932;DHT22;36257;46.052;12.540;2023-07-02T09:56:13;29.80;81.20
40932;DHT22;36257;46.052;12.540;2023-07-02T09:58:39;29.70;77.90
40932;DHT22;36257;46.052;12.540;2023-07-02T10:01:05;29.60;79.30
40932;DHT22;36257;46.052;12.540;2023-07-02T10:03:31;29.60;81.90
40932;DHT22;36257;46.052;12.540;2023-07-02T10:06:03;29.80;79.40
40932;DHT22;36257;46.052;12.540;2023-07-02T10:08:29;30.00;80.60
40932;DHT22;36257;46.052;12.540;2023-07-02T10:11:11;30.20;80.30
40932;DHT22;36257;46.052;12.540;2023-07-02T10:13:38;30.20;80.50
40932;DHT22;36257;46.052;12.540;2023-07-02T10:16:04;30.10;76.70
40932;DHT22;36257;46.052;12.540;2023-07-02T10:18:30;30.00;78.60
40932;DHT22;36257;46.052;12.540;2023-07-02T10:20:56;30.10;81.30
40932;DHT22;36257;46.052;12.540;2023-07-02T10:23:32;30.10;80.50
40932;DHT22;36257;46.052;12.540;2023-07-02T10:25:58;30.20;77.50
40932;DHT22;36257;46.052;12.540;2023-07-02T10:28:23;30.40;79.30
40932;DHT22;36257;46.052;12.540;2023-07-02T10:30:52;30.50;78.70
40932;DHT22;36257;46.052;12.540;2023-07-02T10:33:20;30.50;78.30
40932;DHT22;36257;46.052;12.540;2023-07-02T10:35:46;30.50;78.90
40932;DHT22;36257;46.052;12.540;2023-07-02T10:38:21;30.20;77.80
40932;DHT22;36257;46.052;12.540;2023-07-02T10:40:46;30.20;79.50
40932;DHT22;36257;46.052;12.540;2023-07-02T10:43:12;30.10;76.20
40932;DHT22;36257;46.052;12.540;2023-07-02T10:45:38;30.10;77.60
40932;DHT22;36257;46.052;12.540;2023-07-02T10:48:04;30.10;79.10
40932;DHT22;36257;46.052;12.540;2023-07-02T10:50:30;30.20;79.80
40932;DHT22;36257;46.052;12.540;2023-07-02T10:52:55;30.40;77.90
40932;DHT22;36257;46.052;12.540;2023-07-02T10:55:22;30.50;75.60
40932;DHT22;36257;46.052;12.540;2023-07-02T10:57:48;30.50;77.50
40932;DHT22;36257;46.052;12.540;2023-07-02T11:00:16;30.70;79.90
40932;DHT22;36257;46.052;12.540;2023-07-02T11:02:42;30.70;78.40
40932;DHT22;36257;46.052;12.540;2023-07-02T11:05:07;30.60;77.40
40932;DHT22;36257;46.052;12.540;2023-07-02T11:07:40;30.60;76.60
40932;DHT22;36257;46.052;12.540;2023-07-02T11:10:07;30.70;77.60
40932;DHT22;36257;46.052;12.540;2023-07-02T11:12:32;30.90;77.80
40932;DHT22;36257;46.052;12.540;2023-07-02T11:15:08;31.20;76.00
40932;DHT22;36257;46.052;12.540;2023-07-02T11:17:33;31.60;77.20
40932;DHT22;36257;46.052;12.540;2023-07-02T11:19:59;32.00;73.20
40932;DHT22;36257;46.052;12.540;2023-07-02T11:22:34;32.10;73.80
40932;DHT22;36257;46.052;12.540;2023-07-02T11:25:10;32.20;72.10
40932;DHT22;36257;46.052;12.540;2023-07-02T11:27:36;32.30;71.20
40932;DHT22;36257;46.052;12.540;2023-07-02T11:30:02;32.30;71.10
40932;DHT22;36257;46.052;12.540;2023-07-02T11:32:28;32.20;72.10
40932;DHT22;36257;46.052;12.540;2023-07-02T11:34:53;32.00;72.10
40932;DHT22;36257;46.052;12.540;2023-07-02T11:37:19;31.70;75.40
40932;DHT22;36257;46.052;12.540;2023-07-02T11:39:45;31.50;74.60
40932;DHT22;36257;46.052;12.540;2023-07-02T11:42:10;31.40;74.90
40932;DHT22;36257;46.052;12.540;2023-07-02T11:44:36;31.20;76.50
40932;DHT22;36257;46.052;12.540;2023-07-02T11:47:01;31.30;76.70
40932;DHT22;36257;46.052;12.540;2023-07-02T11:49:28;31.50;75.40
40932;DHT22;36257;46.052;12.540;2023-07-02T11:51:53;31.50;75.00
40932;DHT22;36257;46.052;12.540;2023-07-02T11:54:19;31.60;76.90
40932;DHT22;36257;46.052;12.540;2023-07-02T11:56:45;31.50;78.20
40932;DHT22;36257;46.052;12.540;2023-07-02T11:59:10;31.10;74.20
40932;DHT22;36257;46.052;12.540;2023-07-02T12:01:36;30.80;75.40
40932;DHT22;36257;46.052;12.540;2023-07-02T12:04:01;30.60;77.30
40932;DHT22;36257;46.052;12.540;2023-07-02T12:06:27;30.70;77.60
40932;DHT22;36257;46.052;12.540;2023-07-02T12:08:52;30.60;77.80
40932;DHT22;36257;46.052;12.540;2023-07-02T12:11:18;30.50;75.80
40932;DHT22;36257;46.052;12.540;2023-07-02T12:13:43;30.40;77.10
40932;DHT22;36257;46.052;12.540;2023-07-02T12:16:09;30.20;78.50
40932;DHT22;36257;46.052;12.540;2023-07-02T12:18:34;30.10;78.10
40932;DHT22;36257;46.052;12.540;2023-07-02T12:21:00;30.00;78.80
40932;DHT22;36257;46.052;12.540;2023-07-02T12:23:25;30.10;77.90
40932;DHT22;36257;46.052;12.540;2023-07-02T12:25:51;30.10;79.60
40932;DHT22;36257;46.052;12.540;2023-07-02T12:28:17;30.20;78.70
40932;DHT22;36257;46.052;12.540;2023-07-02T12:30:42;30.10;76.20
40932;DHT22;36257;46.052;12.540;2023-07-02T12:33:08;30.20;79.00
40932;DHT22;36257;46.052;12.540;2023-07-02T12:35:33;30.30;79.80
40932;DHT22;36257;46.052;12.540;2023-07-02T12:37:59;30.20;78.10
40932;DHT22;36257;46.052;12.540;2023-07-02T12:40:24;30.10;78.90
40932;DHT22;36257;46.052;12.540;2023-07-02T12:42:50;29.90;80.10
40932;DHT22;36257;46.052;12.540;2023-07-02T12:45:15;29.90;80.60
40932;DHT22;36257;46.052;12.540;2023-07-02T12:47:41;29.90;78.70
40932;DHT22;36257;46.052;12.540;2023-07-02T12:50:07;29.90;76.50
40932;DHT22;36257;46.052;12.540;2023-07-02T12:52:33;29.90;79.90
40932;DHT22;36257;46.052;12.540;2023-07-02T12:54:59;29.80;78.50
40932;DHT22;36257;46.052;12.540;2023-07-02T12:57:25;29.70;78.00
40932;DHT22;36257;46.052;12.540;2023-07-02T12:59:52;29.60;78.00
40932;DHT22;36257;46.052;12.540;2023-07-02T13:02:17;29.60;78.60
40932;DHT22;36257;46.052;12.540;2023-07-02T13:04:43;29.50;82.00
40932;DHT22;36257;46.052;12.540;2023-07-02T13:07:08;29.50;80.80
40932;DHT22;36257;46.052;12.540;2023-07-02T13:09:34;29.60;80.50
40932;DHT22;36257;46.052;12.540;2023-07-02T13:11:59;29.70;79.00
40932;DHT22;36257;46.052;12.540;2023-07-02T13:14:25;29.60;79.40
40932;DHT22;36257;46.052;12.540;2023-07-02T13:16:50;29.60;81.80
40932;DHT22;36257;46.052;12.540;2023-07-02T13:19:16;29.60;80.90
40932;DHT22;36257;46.052;12.540;2023-07-02T13:21:41;29.40;80.10
40932;DHT22;36257;46.052;12.540;2023-07-02T13:24:07;29.50;80.90
40932;DHT22;36257;46.052;12.540;2023-07-02T13:26:32;29.60;81.80
40932;DHT22;36257;46.052;12.540;2023-07-02T13:28:58;29.60;81.00
40932;DHT22;36257;46.052;12.540;2023-07-02T13:31:23;29.70;79.70
40932;DHT22;36257;46.052;12.540;2023-07-02T13:33:49;29.60;78.50
40932;DHT22;36257;46.052;12.540;2023-07-02T13:36:15;29.40;81.60
40932;DHT22;36257;46.052;12.540;2023-07-02T13:38:41;29.40;80.90
40932;DHT22;36257;46.052;12.540;2023-07-02T13:41:06;29.40;81.00
40932;DHT22;36257;46.052;12.540;2023-07-02T13:43:32;29.40;81.30
40932;DHT22;36257;46.052;12.540;2023-07-02T13:45:57;29.40;81.50
40932;DHT22;36257;46.052;12.540;2023-07-02T13:48:23;29.40;80.20
40932;DHT22;36257;46.052;12.540;2023-07-02T13:50:48;29.20;79.60
40932;DHT22;36257;46.052;12.540;2023-07-02T13:53:14;29.00;80.00
40932;DHT22;36257;46.052;12.540;2023-07-02T13:55:39;28.80;81.20
40932;DHT22;36257;46.052;12.540;2023-07-02T13:58:05;28.70;80.90
40932;DHT22;36257;46.052;12.540;2023-07-02T14:00:30;28.60;80.90
40932;DHT22;36257;46.052;12.540;2023-07-02T14:02:56;28.50;81.40
40932;DHT22;36257;46.052;12.540;2023-07-02T14:05:22;28.50;84.50
40932;DHT22;36257;46.052;12.540;2023-07-02T14:07:47;28.60;82.50
40932;DHT22;36257;46.052;12.540;2023-07-02T14:10:13;28.50;82.50
40932;DHT22;36257;46.052;12.540;2023-07-02T14:12:40;28.50;83.20
40932;DHT22;36257;46.052;12.540;2023-07-02T14:15:06;28.60;83.10
40932;DHT22;36257;46.052;12.540;2023-07-02T14:17:31;28.60;82.90
40932;DHT22;36257;46.052;12.540;2023-07-02T14:19:57;28.70;82.20
40932;DHT22;36257;46.052;12.540;2023-07-02T14:24:56;28.70;81.20
40932;DHT22;36257;46.052;12.540;2023-07-02T14:27:21;28.60;80.80
40932;DHT22;36257;46.052;12.540;2023-07-02T14:29:47;28.60;82.20
40932;DHT22;36257;46.052;12.540;2023-07-02T14:32:13;28.60;82.60
40932;DHT22;36257;46.052;12.540;2023-07-02T14:34:39;28.60;83.30
40932;DHT22;36257;46.052;12.540;2023-07-02T14:37:05;28.70;82.70
40932;DHT22;36257;46.052;12.540;2023-07-02T14:39:30;29.00;82.40
40932;DHT22;36257;46.052;12.540;2023-07-02T14:41:56;29.10;82.00
40932;DHT22;36257;46.052;12.540;2023-07-02T14:44:21;29.20;79.80
40932;DHT22;36257;46.052;12.540;2023-07-02T14:46:50;29.30;79.10
40932;DHT22;36257;46.052;12.540;2023-07-02T14:52:22;29.50;80.90
40932;DHT22;36257;46.052;12.540;2023-07-02T14:54:48;29.50;78.10
40932;DHT22;36257;46.052;12.540;2023-07-02T14:57:13;29.70;79.50
40932;DHT22;36257;46.052;12.540;2023-07-02T14:59:39;29.70;78.60
40932;DHT22;36257;46.052;12.540;2023-07-02T15:02:06;29.70;78.10
40932;DHT22;36257;46.052;12.540;2023-07-02T15:04:31;29.80;78.60
40932;DHT22;36257;46.052;12.540;2023-07-02T15:06:57;29.90;79.60
40932;DHT22;36257;46.052;12.540;2023-07-02T15:09:23;30.00;76.90
40932;DHT22;36257;46.052;12.540;2023-07-02T15:11:52;30.00;77.00
40932;DHT22;36257;46.052;12.540;2023-07-02T15:14:18;30.00;79.90